Etusivu
METAR-TAF:

METAR-TAF

Lentoasemat :

Richland, Washington, Yhdysvallat

Leveyspiiri: 46-18-20N, Pituuspiiri: 119-18-15W, korkeus merenpinnasta: 120 m

Tämänhetkinen sää

Tämä raportti tehtiin 27 minuuttia sitten, kello 13.15 UTC
tyyntä
Lämpötila 7°C
Kosteus 87%
Ilmanpaine 1023 hPa
Näkyvyys: 4.8 km
selkeää
utua

METAR: KRLD 291315Z AUTO 00000KT 3SM BR CLR 07/05 A3021 RMK AO2 T00660053

Aika: 06:42 (13:42 UTC)


TAF: puuttuu

Säähavainnot ja -ennusteet yli 4000 lentoasemalta (METAR- ja TAF-raportit).

Käytössä olevat sääasemat on merkitty karttaan keltaisilla ja punaisilla pisteillä.

Aseta hiiri pisteen päälle nähdäksesi sääaseman nimen.

Klikkaa sitten nähdäksesi säähavainnot ja -ennusteet.

Kartan vaihtaminen: klikkaa mustalla rastilla varustettuja vihreitä pisteitä, niin voit zoomata sisään; viivalla varustettua vihreää pistettä, niin voit zoomata ulos tai vihreitä nuolia, niin pääset viereisille kartoille.


METAR-TAF: